Time;durP1;ratioP1;P1;durP2;ratioP2;P2;SDS_P1;SDS_P2;PMS_P1;PMS_P2;Temp;Humidity;BMP_temperature;BMP_pressure;BME280_temperature;BME280_humidity;BME280_pressure;Samples;Min_cycle;Max_cycle;Signal;HPM_P1;HPM_P2
2023/10/11 00:00:56;;;;;;;31.00;19.30;;;;;;;2.70;100.00;101249.19;88401;282;136862;-69
2023/10/11 00:03:04;;;;;;;34.00;19.20;;;;;;;2.71;100.00;101246.98;88703;282;22533;-66
2023/10/11 00:05:07;;;;;;;28.40;17.70;;;;;;;2.72;100.00;101245.38;88612;280;136841;-65
2023/10/11 00:07:09;;;;;;;31.50;20.40;;;;;;;2.72;100.00;101243.41;88534;275;22526;-68
2023/10/11 00:09:16;;;;;;;24.50;18.30;;;;;;;2.73;100.00;101240.55;88364;279;139022;-68
2023/10/11 00:11:24;;;;;;;26.60;19.40;;;;;;;2.74;99.99;101234.14;88549;282;24811;-71
2023/10/11 00:13:32;;;;;;;29.30;19.30;;;;;;;2.75;99.94;101234.99;88532;277;136229;-67
2023/10/11 00:15:36;;;;;;;30.90;18.70;;;;;;;2.71;99.94;101234.50;88613;278;25184;-68
2023/10/11 00:17:37;;;;;;;32.30;20.50;;;;;;;2.67;99.96;101232.20;88497;275;135862;-66
2023/10/11 00:19:40;;;;;;;28.20;19.50;;;;;;;2.64;100.00;101230.33;88772;274;22602;-66
2023/10/11 00:21:42;;;;;;;26.90;19.10;;;;;;;2.53;100.00;101218.68;88478;274;137819;-66
2023/10/11 00:23:51;;;;;;;27.40;19.60;;;;;;;2.59;100.00;101235.60;88555;282;22537;-66
2023/10/11 00:26:00;;;;;;;27.60;19.60;;;;;;;2.54;100.00;101234.60;88461;282;136357;-68
2023/10/11 00:28:02;;;;;;;27.60;18.20;;;;;;;2.55;99.97;101239.25;88571;275;22547;-68
2023/10/11 00:30:06;;;;;;;29.70;18.60;;;;;;;2.57;99.93;101241.41;88508;275;22927;-68
2023/10/11 00:32:09;;;;;;;30.70;17.90;;;;;;;2.58;99.85;101243.95;88521;275;138161;-68
2023/10/11 00:34:12;;;;;;;24.80;18.20;;;;;;;2.58;99.84;101246.05;88634;277;22530;-67
2023/10/11 00:36:15;;;;;;;27.80;18.60;;;;;;;2.59;99.89;101248.95;88471;279;138625;-64
2023/10/11 00:38:29;;;;;;;27.60;18.70;;;;;;;2.58;99.76;101250.41;88622;281;22916;-67
2023/10/11 00:40:33;;;;;;;25.90;17.40;;;;;;;2.56;99.29;101249.54;88438;273;136918;-66
2023/10/11 00:42:35;;;;;;;25.90;17.30;;;;;;;2.51;99.21;101254.45;88505;278;22613;-66
2023/10/11 00:44:38;;;;;;;27.50;18.20;;;;;;;2.45;99.54;101254.52;88585;275;136035;-66
2023/10/11 00:49:13;;;;;;;27.80;17.30;;;;;;;2.34;99.92;101256.77;88385;282;136137;-67
2023/10/11 00:51:15;;;;;;;24.70;18.70;;;;;;;2.29;100.00;101257.63;88430;280;23781;-67
2023/10/11 00:53:18;;;;;;;25.70;18.30;;;;;;;2.25;100.00;101261.84;88597;275;136303;-67
2023/10/11 00:55:23;;;;;;;26.00;17.30;;;;;;;2.23;100.00;101265.08;88631;274;22651;-68
2023/10/11 00:57:27;;;;;;;30.60;17.30;;;;;;;2.22;100.00;101266.23;88433;282;138289;-68
2023/10/11 00:59:30;;;;;;;26.00;16.30;;;;;;;2.20;100.00;101262.83;88575;280;22547;-67
2023/10/11 01:01:33;;;;;;;34.90;17.10;;;;;;;2.18;100.00;101266.14;88538;282;137039;-68
2023/10/11 01:03:36;;;;;;;26.20;16.70;;;;;;;2.17;100.00;101269.38;88506;283;25147;-67
2023/10/11 01:05:43;;;;;;;29.00;16.40;;;;;;;2.17;100.00;101267.14;88479;275;138342;-67
2023/10/11 01:07:46;;;;;;;23.70;17.50;;;;;;;2.17;100.00;101269.23;88586;275;22552;-69
2023/10/11 01:09:47;;;;;;;26.60;17.20;;;;;;;2.17;100.00;101268.49;88492;280;137537;-64
2023/10/11 01:11:49;;;;;;;23.80;17.00;;;;;;;2.18;100.00;101260.60;88648;280;22725;-66
2023/10/11 01:13:51;;;;;;;28.30;18.40;;;;;;;2.16;100.00;101260.88;88367;279;136688;-67
2023/10/11 01:15:52;;;;;;;25.30;19.10;;;;;;;2.15;100.00;101263.23;88520;278;22663;-65
2023/10/11 01:17:54;;;;;;;30.60;21.90;;;;;;;2.13;100.00;101265.31;88434;282;136183;-67
2023/10/11 01:19:56;;;;;;;26.90;19.20;;;;;;;2.13;100.00;101271.77;88531;278;32133;-67
2023/10/11 01:21:59;;;;;;;29.20;19.90;;;;;;;2.15;100.00;101268.48;88397;280;137468;-69
2023/10/11 01:24:01;;;;;;;35.00;23.90;;;;;;;2.18;100.00;101270.57;88488;278;23758;-66
2023/10/11 01:26:07;;;;;;;31.50;19.80;;;;;;;2.23;100.00;101275.62;88503;281;24034;-68
2023/10/11 01:28:09;;;;;;;29.80;19.20;;;;;;;2.28;100.00;101275.44;88540;281;137299;-66
2023/10/11 01:30:11;;;;;;;24.70;17.60;;;;;;;2.33;100.00;101274.91;88405;282;22573;-67
2023/10/11 01:32:14;;;;;;;26.70;18.10;;;;;;;2.34;100.00;101272.02;88421;282;137177;-67
2023/10/11 01:34:18;;;;;;;26.40;19.40;;;;;;;2.34;100.00;101273.96;88596;275;24173;-65
2023/10/11 01:36:22;;;;;;;27.10;18.10;;;;;;;2.33;100.00;101273.62;88366;282;138438;-66
2023/10/11 01:38:24;;;;;;;33.30;20.30;;;;;;;2.33;100.00;101271.55;88427;283;23692;-66
2023/10/11 01:40:31;;;;;;;33.20;21.30;;;;;;;2.31;100.00;101273.66;88349;274;136490;-65
2023/10/11 01:42:36;;;;;;;33.30;21.90;;;;;;;2.28;100.00;101279.43;88494;281;26014;-67
2023/10/11 01:44:38;;;;;;;30.10;21.50;;;;;;;2.27;100.00;101278.30;88309;283;136623;-67
2023/10/11 01:46:41;;;;;;;32.90;22.60;;;;;;;2.26;100.00;101279.92;88427;282;25083;-68
2023/10/11 01:48:46;;;;;;;35.50;22.70;;;;;;;2.27;100.00;101277.41;88296;283;137561;-66
2023/10/11 01:50:49;;;;;;;31.60;21.50;;;;;;;2.32;100.00;101282.88;88519;279;22523;-68
2023/10/11 01:52:51;;;;;;;34.60;22.20;;;;;;;2.35;100.00;101279.48;88212;274;137004;-67
2023/10/11 01:54:58;;;;;;;33.90;20.60;;;;;;;2.38;100.00;101285.27;88495;275;24211;-67
2023/10/11 01:57:01;;;;;;;29.00;21.80;;;;;;;2.37;100.00;101291.94;88365;282;137396;-65
2023/10/11 01:59:04;;;;;;;28.00;19.70;;;;;;;2.38;100.00;101287.15;88411;283;22996;-67
2023/10/11 02:01:17;;;;;;;31.70;20.30;;;;;;;2.37;100.00;101286.70;88368;281;138423;-68
2023/10/11 02:03:19;;;;;;;33.30;21.80;;;;;;;2.38;100.00;101286.25;88400;278;24042;-66
2023/10/11 02:05:25;;;;;;;32.60;20.70;;;;;;;2.39;100.00;101288.84;89984;282;138400;-68
2023/10/11 02:07:27;;;;;;;30.00;20.30;;;;;;;2.39;100.00;101293.39;88455;279;22526;-66
2023/10/11 02:09:28;;;;;;;32.00;20.40;;;;;;;2.40;100.00;101293.00;88328;282;136982;-66
2023/10/11 02:11:30;;;;;;;33.30;20.40;;;;;;;2.36;100.00;101293.80;88478;282;25230;-70
2023/10/11 02:13:33;;;;;;;26.40;19.30;;;;;;;2.33;100.00;101292.26;88472;281;137814;-66
2023/10/11 02:15:37;;;;;;;30.90;22.60;;;;;;;2.30;100.00;101293.52;88514;281;22565;-67
2023/10/11 02:17:39;;;;;;;30.70;21.30;;;;;;;2.27;100.00;101294.63;88517;278;136659;-64
2023/10/11 02:19:41;;;;;;;35.50;21.90;;;;;;;2.27;100.00;101309.34;88481;273;22557;-66
2023/10/11 02:21:44;;;;;;;33.20;20.70;;;;;;;2.30;100.00;101318.48;88402;274;137196;-66
2023/10/11 02:23:46;;;;;;;30.90;20.70;;;;;;;2.31;100.00;101323.27;88623;281;22553;-73
2023/10/11 02:25:48;;;;;;;30.40;22.20;;;;;;;2.33;100.00;101323.32;88470;282;136867;-69
2023/10/11 02:27:54;;;;;;;28.50;19.70;;;;;;;2.32;100.00;101326.50;88617;281;25245;-64
2023/10/11 02:29:56;;;;;;;33.50;19.70;;;;;;;2.32;100.00;101329.52;88449;281;137868;-66
2023/10/11 02:32:01;;;;;;;29.20;19.60;;;;;;;2.31;100.00;101329.05;88808;274;22537;-66
2023/10/11 02:34:12;;;;;;;29.10;19.50;;;;;;;2.31;100.00;101328.71;88640;282;22533;-67
2023/10/11 02:36:18;;;;;;;35.20;19.60;;;;;;;2.29;100.00;101329.55;88444;279;136853;-67
2023/10/11 02:38:23;;;;;;;;;;;;;;;2.26;100.00;101327.46;88562;275;25199;-68
2023/10/11 02:40:25;;;;;;;27.50;17.90;;;;;;;2.24;100.00;101329.08;88609;281;123374;-66
2023/10/11 02:42:27;;;;;;;25.50;18.70;;;;;;;2.19;100.00;101329.92;88419;275;22538;-66
2023/10/11 02:44:30;;;;;;;28.20;18.30;;;;;;;2.17;100.00;101331.11;88458;281;138410;-68
2023/10/11 02:46:33;;;;;;;35.20;21.00;;;;;;;2.15;100.00;101332.14;88664;277;22526;-68
2023/10/11 02:48:35;;;;;;;28.10;21.50;;;;;;;2.11;100.00;101330.49;88460;273;136591;-68
2023/10/11 02:50:37;;;;;;;30.70;20.50;;;;;;;2.08;100.00;101330.02;88533;279;25105;-71
2023/10/11 02:52:41;;;;;;;36.10;20.20;;;;;;;2.04;100.00;101326.63;88535;278;136498;-66
2023/10/11 02:54:43;;;;;;;32.80;19.70;;;;;;;2.03;100.00;101328.60;88671;274;24015;-66
2023/10/11 02:56:47;;;;;;;28.50;18.80;;;;;;;2.05;100.00;101329.45;88302;280;138092;-67
2023/10/11 02:58:51;;;;;;;29.10;18.10;;;;;;;2.09;100.00;101329.23;88645;277;22546;-67
2023/10/11 03:00:58;;;;;;;23.20;16.90;;;;;;;2.10;100.00;101328.23;88414;281;136926;-70
2023/10/11 03:03:21;;;;;;;30.70;17.80;;;;;;;2.13;100.00;101335.04;88473;282;22601;-68
2023/10/11 03:05:28;;;;;;;27.10;19.50;;;;;;;2.16;100.00;101334.54;88570;278;137509;-68
2023/10/11 03:07:33;;;;;;;31.20;19.30;;;;;;;2.17;100.00;101336.38;88605;278;25219;-68
2023/10/11 03:09:37;;;;;;;32.10;18.50;;;;;;;2.17;100.00;101333.20;88455;281;137179;-66
2023/10/11 03:11:45;;;;;;;28.00;19.00;;;;;;;2.18;100.00;101336.14;88509;279;22569;-66
2023/10/11 03:13:47;;;;;;;30.50;18.00;;;;;;;2.19;100.00;101333.98;88466;278;137343;-68
2023/10/11 03:15:54;;;;;;;29.90;19.30;;;;;;;2.19;100.00;101330.10;88547;278;23718;-68
2023/10/11 03:17:56;;;;;;;26.70;19.30;;;;;;;2.19;100.00;101329.42;88555;280;136195;-65
2023/10/11 03:19:58;;;;;;;32.60;19.60;;;;;;;2.17;100.00;101332.38;88602;273;22535;-67
2023/10/11 03:22:02;;;;;;;28.90;19.90;;;;;;;2.15;100.00;101333.73;88459;278;137245;-66
2023/10/11 03:24:05;;;;;;;27.70;19.70;;;;;;;2.12;100.00;101331.97;88446;281;136803;-68
2023/10/11 03:26:08;;;;;;;32.50;22.40;;;;;;;2.10;100.00;101328.48;88641;277;25118;-65
2023/10/11 03:28:14;;;;;;;31.50;20.90;;;;;;;2.09;100.00;101325.33;88556;279;136791;-68
2023/10/11 03:30:21;;;;;;;25.80;19.60;;;;;;;2.14;100.00;101326.71;88541;273;23645;-70
2023/10/11 03:32:25;;;;;;;26.80;19.70;;;;;;;2.19;100.00;101328.19;88413;281;137191;-66
2023/10/11 03:34:29;;;;;;;28.60;19.00;;;;;;;2.22;100.00;101329.52;88566;278;22548;-64
2023/10/11 03:36:35;;;;;;;27.90;18.30;;;;;;;2.26;100.00;101328.57;88443;280;137325;-74
2023/10/11 03:38:40;;;;;;;29.50;18.40;;;;;;;2.28;100.00;101329.10;88537;273;25229;-67
2023/10/11 03:41:07;;;;;;;31.80;19.90;;;;;;;2.27;100.00;101334.22;88410;273;137041;-68
2023/10/11 03:43:16;;;;;;;25.40;17.20;;;;;;;2.26;100.00;101332.02;88534;278;22533;-62
2023/10/11 03:45:20;;;;;;;27.10;17.80;;;;;;;2.24;100.00;101331.85;88504;277;136864;-67
2023/10/11 03:47:25;;;;;;;25.50;18.90;;;;;;;2.20;100.00;101329.30;88634;281;22526;-74
2023/10/11 03:51:29;;;;;;;28.00;18.90;;;;;;;2.17;100.00;101324.96;88774;280;23506;-65
2023/10/11 03:53:32;;;;;;;29.70;19.70;;;;;;;2.16;100.00;101326.09;88407;273;136625;-67
2023/10/11 03:55:34;;;;;;;31.60;21.30;;;;;;;2.12;100.00;101327.77;88681;279;22812;-67
2023/10/11 03:57:50;;;;;;;35.80;22.70;;;;;;;2.07;100.00;101335.34;88469;281;136415;-65
2023/10/11 03:59:52;;;;;;;30.30;20.10;;;;;;;2.03;100.00;101334.37;88636;277;24049;-70
2023/10/11 04:01:59;;;;;;;31.00;21.10;;;;;;;2.03;100.00;101334.77;88267;273;138242;-69
2023/10/11 04:04:01;;;;;;;33.90;21.30;;;;;;;2.03;100.00;101334.34;88311;281;22538;-70
2023/10/11 04:06:13;;;;;;;31.40;20.40;;;;;;;2.04;100.00;101338.36;88285;273;22526;-69
2023/10/11 04:08:24;;;;;;;28.60;19.70;;;;;;;2.00;100.00;101339.12;88313;273;137311;-69
2023/10/11 04:10:38;;;;;;;32.70;19.10;;;;;;;1.97;100.00;101341.46;88554;273;22537;-68
2023/10/11 04:12:42;;;;;;;;;;;;;;;1.96;100.00;101345.05;88376;273;137468;-67
2023/10/11 04:14:44;;;;;;;30.80;19.30;;;;;;;1.95;100.00;101345.82;88403;273;22544;-66
2023/10/11 04:16:46;;;;;;;30.90;20.20;;;;;;;1.93;100.00;101344.69;88386;273;137195;-68
2023/10/11 04:18:52;;;;;;;37.50;21.10;;;;;;;1.93;100.00;101339.81;88555;273;22889;-69
2023/10/11 04:21:56;;;;;;;34.90;20.80;;;;;;;1.93;100.00;101340.33;88390;273;137398;-70
2023/10/11 04:23:27;;;;;;;33.40;20.90;;;;;;;1.94;100.00;101348.12;88388;277;22552;-71
2023/10/11 04:25:32;;;;;;;31.30;20.70;;;;;;;1.96;100.00;101354.34;88396;274;136878;-70
2023/10/11 04:29:38;;;;;;;36.60;22.50;;;;;;;1.97;100.00;101353.73;88431;273;136141;-70
2023/10/11 04:31:54;;;;;;;38.90;23.40;;;;;;;2.11;100.00;101351.33;88557;273;25141;-68
2023/10/11 04:33:59;;;;;;;37.20;23.20;;;;;;;2.40;100.00;101340.30;88422;281;136022;-66
2023/10/11 04:36:02;;;;;;;36.70;22.70;;;;;;;2.76;100.00;101344.92;88580;277;25147;-69
2023/10/11 04:38:05;;;;;;;28.50;20.90;;;;;;;3.15;100.00;101351.00;88551;273;23733;-70
2023/10/11 04:40:23;;;;;;;28.80;21.20;;;;;;;3.56;100.00;101350.17;88441;273;137323;-70
2023/10/11 04:42:28;;;;;;;31.50;22.60;;;;;;;4.03;100.00;101352.33;88533;274;22544;-72
2023/10/11 04:44:42;;;;;;;31.80;21.10;;;;;;;4.41;100.00;101349.54;88599;273;137986;-69
2023/10/11 04:46:57;;;;;;;30.80;22.00;;;;;;;4.79;100.00;101353.13;88390;282;25328;-69
2023/10/11 04:49:18;;;;;;;28.90;20.90;;;;;;;5.19;100.00;101352.81;90584;279;136636;-67
2023/10/11 04:53:32;;;;;;;27.60;21.20;;;;;;;6.01;98.22;101353.95;88355;274;136141;-70
2023/10/11 04:55:37;;;;;;;35.30;23.60;;;;;;;6.41;93.23;101353.62;88474;277;22540;-71
2023/10/11 04:58:04;;;;;;;32.80;23.70;;;;;;;6.65;89.54;101356.61;88333;278;137245;-69
2023/10/11 05:00:08;;;;;;;28.60;21.80;;;;;;;6.79;88.18;101357.34;88274;274;136643;-68
2023/10/11 05:02:18;;;;;;;29.80;20.00;;;;;;;6.95;87.32;101355.89;88412;275;24022;-72
2023/10/11 05:04:27;;;;;;;30.50;21.40;;;;;;;7.19;85.48;101359.02;88600;282;136512;-69
2023/10/11 05:06:34;;;;;;;26.80;19.00;;;;;;;7.52;83.76;101355.39;91300;282;25847;-72
2023/10/11 05:08:51;;;;;;;28.10;19.20;;;;;;;7.81;80.39;101351.70;88618;281;136351;-66
2023/10/11 05:10:55;;;;;;;31.70;20.40;;;;;;;7.99;79.43;101348.39;89270;275;23125;-71
2023/10/11 05:13:11;;;;;;;27.30;18.30;;;;;;;8.19;78.40;101345.21;88184;281;136540;-73
2023/10/11 05:15:15;;;;;;;29.90;19.40;;;;;;;8.40;76.12;101347.21;88354;278;24175;-71
2023/10/11 05:19:27;;;;;;;27.10;18.40;;;;;;;8.73;73.70;101347.80;88405;274;22606;-72
2023/10/11 05:21:38;;;;;;;23.90;17.40;;;;;;;8.88;73.06;101349.89;88353;277;137328;-70
2023/10/11 05:24:03;;;;;;;23.70;17.20;;;;;;;9.09;72.11;101352.23;88651;281;25328;-73
2023/10/11 05:26:34;;;;;;;24.30;16.80;;;;;;;9.33;70.73;101352.81;88609;273;22628;-71
2023/10/11 05:28:27;;;;;;;22.90;16.50;;;;;;;9.58;69.31;101353.77;88387;274;136436;-70
2023/10/11 05:30:29;;;;;;;20.70;15.90;;;;;;;9.85;68.58;101357.23;88472;273;22534;-72
2023/10/11 05:32:32;;;;;;;24.40;17.60;;;;;;;10.18;67.04;101357.55;88403;280;137536;-73
2023/10/11 05:51:20;;;;;;;13.80;11.20;;;;;;;12.20;56.15;101359.85;88419;273;22606;-71
2023/10/11 05:53:24;;;;;;;14.10;11.10;;;;;;;12.24;55.59;101363.91;88457;274;136689;-73
2023/10/11 05:55:26;;;;;;;11.10;9.80;;;;;;;12.31;54.94;101365.40;88526;274;22537;-71
2023/10/11 05:57:28;;;;;;;10.70;9.60;;;;;;;12.34;53.67;101364.23;88461;281;136501;-72
2023/10/11 05:59:32;;;;;;;13.00;10.60;;;;;;;12.34;53.28;101365.50;88480;273;22550;-72
2023/10/11 06:01:34;;;;;;;11.40;10.10;;;;;;;12.26;52.69;101364.55;88402;274;137945;-71
2023/10/11 06:03:36;;;;;;;13.60;10.90;;;;;;;12.13;52.02;101366.52;88431;282;22537;-71
2023/10/11 06:05:39;;;;;;;12.90;9.00;;;;;;;11.95;52.49;101369.66;88430;277;136663;-73
2023/10/11 06:07:42;;;;;;;9.00;8.20;;;;;;;11.46;52.69;101363.30;88954;281;25084;-70
2023/10/11 06:09:45;;;;;;;10.50;8.80;;;;;;;10.99;54.15;101375.52;88410;273;136320;-73
2023/10/11 06:11:48;;;;;;;11.90;9.40;;;;;;;10.42;55.50;101377.24;88175;274;24018;-71
2023/10/11 06:13:52;;;;;;;12.20;9.60;;;;;;;9.79;56.59;101378.54;88607;281;136464;-73
2023/10/11 06:15:58;;;;;;;13.10;10.30;;;;;;;9.12;58.46;101381.81;88498;277;25612;-70
2023/10/11 06:18:01;;;;;;;10.40;8.90;;;;;;;8.63;59.98;101380.02;88544;281;137228;-69
2023/10/11 06:22:28;;;;;;;11.30;9.20;;;;;;;7.87;62.52;101383.81;88507;281;22553;-73
2023/10/11 06:24:36;;;;;;;10.60;9.30;;;;;;;7.57;63.75;101384.13;88498;273;136145;-69
2023/10/11 06:28:44;;;;;;;13.60;9.30;;;;;;;7.20;65.28;101382.27;88408;281;137458;-70
2023/10/11 06:30:46;;;;;;;14.50;10.50;;;;;;;7.01;66.06;101382.59;88597;279;25080;-74
2023/10/11 06:32:52;;;;;;;11.30;9.30;;;;;;;6.89;66.37;101380.70;88459;274;136209;-71
2023/10/11 06:34:54;;;;;;;10.20;9.10;;;;;;;6.79;67.44;101385.39;88571;281;22537;-70
2023/10/11 06:36:57;;;;;;;11.40;9.40;;;;;;;6.72;67.74;101382.64;88443;273;136202;-65
2023/10/11 06:38:59;;;;;;;12.30;9.70;;;;;;;6.72;68.02;101385.17;88494;277;23601;-70
2023/10/11 06:43:22;;;;;;;18.30;11.20;;;;;;;6.72;68.33;101388.89;88513;281;22604;-68
2023/10/11 06:45:28;;;;;;;13.50;10.80;;;;;;;6.74;68.46;101387.05;88390;277;136295;-68
2023/10/11 06:47:35;;;;;;;11.70;8.60;;;;;;;6.78;68.36;101390.61;88519;277;22533;-69
2023/10/11 06:49:40;;;;;;;19.90;10.40;;;;;;;6.78;68.59;101386.90;88380;273;135957;-70
2023/10/11 06:51:42;;;;;;;14.20;10.50;;;;;;;6.78;68.82;101388.01;88475;274;22928;-70
2023/10/11 06:53:46;;;;;;;17.10;11.20;;;;;;;6.78;68.93;101391.27;88223;281;137661;-71
2023/10/11 06:55:50;;;;;;;12.90;10.40;;;;;;;6.80;69.34;101387.64;89549;279;25287;-72
2023/10/11 06:57:56;;;;;;;15.40;9.90;;;;;;;6.83;69.65;101394.27;88404;279;137266;-70
2023/10/11 06:59:58;;;;;;;14.90;10.50;;;;;;;6.85;69.58;101391.43;88721;281;25236;-67
2023/10/11 07:02:00;;;;;;;15.40;10.30;;;;;;;6.84;69.97;101395.21;88452;279;136171;-70
2023/10/11 07:04:05;;;;;;;14.00;10.70;;;;;;;6.84;70.09;101392.89;88496;281;136756;-72
2023/10/11 07:06:10;;;;;;;17.40;11.00;;;;;;;6.75;70.47;101384.75;88565;278;22545;-70
2023/10/11 07:08:20;;;;;;;14.90;10.20;;;;;;;6.78;71.27;101393.26;88391;273;137332;-73
2023/10/11 07:10:28;;;;;;;11.10;9.60;;;;;;;6.79;71.64;101398.00;88617;273;22530;-71
2023/10/11 07:12:39;;;;;;;14.80;10.70;;;;;;;6.73;71.98;101384.67;88420;277;136430;-70
2023/10/11 07:14:41;;;;;;;13.70;9.50;;;;;;;6.90;72.17;101397.35;88444;274;25193;-72
2023/10/11 07:16:44;;;;;;;16.80;11.00;;;;;;;7.03;71.88;101398.85;88516;277;136127;-70
2023/10/11 07:18:47;;;;;;;12.10;10.00;;;;;;;7.15;71.30;101405.52;88619;273;24212;-71
2023/10/11 07:20:49;;;;;;;11.40;9.70;;;;;;;7.21;71.24;101406.03;90590;281;137106;-72
2023/10/11 07:22:51;;;;;;;12.80;10.50;;;;;;;7.25;71.33;101406.41;88438;277;26257;-70
2023/10/11 07:24:57;;;;;;;14.40;10.40;;;;;;;7.30;71.33;101408.09;88425;273;136380;-71
2023/10/11 07:27:08;;;;;;;16.20;10.60;;;;;;;7.35;70.97;101405.10;88545;277;23767;-71
2023/10/11 07:29:16;;;;;;;18.30;10.60;;;;;;;7.42;70.82;101404.76;88430;273;136192;-71
2023/10/11 07:31:21;;;;;;;14.70;9.80;;;;;;;7.52;70.19;101406.51;88621;277;25324;-71
2023/10/11 07:33:23;;;;;;;13.00;10.70;;;;;;;7.60;70.28;101410.39;88449;273;136526;-73
2023/10/11 07:35:27;;;;;;;15.50;10.50;;;;;;;7.68;70.10;101406.48;88459;273;25286;-71
2023/10/11 07:37:29;;;;;;;12.60;11.00;;;;;;;7.81;69.49;101409.54;88553;275;137684;-70
2023/10/11 07:39:33;;;;;;;13.50;9.80;;;;;;;7.91;69.12;101403.79;88486;275;24225;-69
2023/10/11 07:41:42;;;;;;;14.60;9.90;;;;;;;8.02;68.02;101408.77;88402;280;136037;-70
2023/10/11 07:43:47;;;;;;;12.10;8.90;;;;;;;8.09;67.26;101405.28;88482;273;25213;-70
2023/10/11 07:45:49;;;;;;;14.90;10.30;;;;;;;8.13;66.96;101403.17;88359;278;137809;-72
2023/10/11 07:47:52;;;;;;;14.10;8.80;;;;;;;8.16;66.32;101401.45;88447;274;22615;-69
2023/10/11 07:49:54;;;;;;;15.00;10.40;;;;;;;8.15;66.24;101396.70;88378;281;136003;-69
2023/10/11 07:52:00;;;;;;;14.50;9.70;;;;;;;8.15;66.20;101399.38;88543;273;22538;-70
2023/10/11 07:54:06;;;;;;;15.70;9.80;;;;;;;8.16;66.24;101395.70;88339;273;135619;-71
2023/10/11 07:56:15;;;;;;;11.80;10.20;;;;;;;8.23;66.55;101392.77;88216;273;136226;-69
2023/10/11 07:58:26;;;;;;;11.50;9.30;;;;;;;8.34;65.87;101397.20;88354;274;24914;-71
2023/10/11 08:00:30;;;;;;;12.90;8.90;;;;;;;8.42;65.70;101391.36;88422;278;157083;-72
2023/10/11 08:02:41;;;;;;;12.90;8.70;;;;;;;8.49;65.49;101385.74;88445;273;22756;-70
2023/10/11 08:04:53;;;;;;;13.10;10.00;;;;;;;8.54;65.16;101382.89;88529;280;135870;-73
2023/10/11 08:06:59;;;;;;;14.50;9.20;;;;;;;8.61;64.89;101380.19;88437;281;26361;-73
2023/10/11 08:09:01;;;;;;;13.50;9.00;;;;;;;8.63;65.18;101374.60;88406;281;137045;-68
2023/10/11 08:11:06;;;;;;;12.50;8.90;;;;;;;8.70;64.78;101374.52;88418;274;22544;-71
2023/10/11 08:13:23;;;;;;;12.30;9.20;;;;;;;8.77;64.68;101371.89;88274;277;137629;-70
2023/10/11 08:15:25;;;;;;;11.90;8.30;;;;;;;8.85;64.85;101375.55;88309;276;22539;-70
2023/10/11 08:17:29;;;;;;;11.70;9.00;;;;;;;8.93;64.29;101372.44;88325;273;136124;-72
2023/10/11 08:19:33;;;;;;;13.80;8.80;;;;;;;9.02;64.30;101374.00;88967;280;22536;-70
2023/10/11 08:21:34;;;;;;;10.20;7.70;;;;;;;9.11;63.52;101370.27;88362;282;136328;-68
2023/10/11 08:23:42;;;;;;;11.10;8.60;;;;;;;9.17;63.62;101368.09;88218;273;22537;-71
2023/10/11 08:25:51;;;;;;;8.70;6.60;;;;;;;9.26;63.51;101369.88;88896;273;137867;-70
2023/10/11 08:28:12;;;;;;;10.80;7.90;;;;;;;9.33;62.70;101368.77;88640;277;25252;-70
2023/10/11 08:32:17;;;;;;;12.30;7.80;;;;;;;9.48;62.42;101364.06;88260;272;136438;-71
2023/10/11 08:34:19;;;;;;;10.60;8.10;;;;;;;9.54;62.41;101361.50;88766;277;22541;-71
2023/10/11 08:36:21;;;;;;;11.90;8.60;;;;;;;9.63;61.65;101363.47;88288;277;138695;-72
2023/10/11 08:38:25;;;;;;;11.10;7.40;;;;;;;9.70;61.53;101365.71;88323;274;24055;-70
2023/10/11 08:40:34;;;;;;;10.50;7.60;;;;;;;9.82;61.03;101363.84;88075;275;136135;-72
2023/10/11 08:42:38;;;;;;;11.90;7.10;;;;;;;9.91;60.31;101368.35;88532;281;22531;-71
2023/10/11 08:44:44;;;;;;;10.60;7.30;;;;;;;9.97;60.33;101372.08;88222;275;135647;-72
2023/10/11 08:46:50;;;;;;;10.70;6.60;;;;;;;10.02;60.28;101370.23;88519;273;22631;-71
2023/10/11 08:48:52;;;;;;;9.50;6.80;;;;;;;10.09;60.07;101369.50;88622;280;136479;-70
2023/10/11 08:50:55;;;;;;;11.20;6.80;;;;;;;10.17;59.71;101370.80;88688;280;24055;-71
2023/10/11 08:53:01;;;;;;;11.00;6.40;;;;;;;10.23;59.06;101370.69;88490;281;136228;-70
2023/10/11 08:55:06;;;;;;;6.40;5.10;;;;;;;10.27;58.85;101369.01;88457;277;22537;-71
2023/10/11 08:57:13;;;;;;;9.00;5.90;;;;;;;10.23;58.85;101354.52;88473;273;137932;-70
2023/10/11 08:59:15;;;;;;;7.80;6.20;;;;;;;10.32;58.98;101361.13;88489;274;22553;-69
2023/10/11 09:01:17;;;;;;;7.10;6.30;;;;;;;10.36;58.96;101360.14;88254;273;136236;-72
2023/10/11 09:03:22;;;;;;;8.00;7.20;;;;;;;10.44;58.66;101358.92;88491;277;24014;-71
2023/10/11 09:05:42;;;;;;;;;;;;;;;10.53;58.17;101359.23;88350;277;136429;-74
2023/10/11 09:07:46;;;;;;;7.00;5.40;;;;;;;10.60;57.67;101356.20;88238;281;23478;-72
2023/10/11 09:09:51;;;;;;;6.40;5.70;;;;;;;10.65;57.31;101351.95;89350;281;136176;-72
2023/10/11 09:11:53;;;;;;;8.00;4.80;;;;;;;10.69;57.24;101350.63;88239;282;22539;-72
2023/10/11 09:14:12;;;;;;;6.80;5.10;;;;;;;10.76;56.91;101350.80;88650;280;140486;-71
2023/10/11 09:16:34;;;;;;;5.70;4.60;;;;;;;10.83;56.46;101348.64;88418;273;137635;-72
2023/10/11 09:18:37;;;;;;;6.40;4.00;;;;;;;10.91;56.33;101347.91;88594;280;22548;-72
2023/10/11 09:20:41;;;;;;;5.50;4.40;;;;;;;11.00;55.90;101350.14;88788;273;138002;-70
2023/10/11 09:22:47;;;;;;;5.90;3.80;;;;;;;11.06;55.08;101341.81;88400;280;23714;-73
2023/10/11 09:25:21;;;;;;;5.60;3.60;;;;;;;11.15;54.83;101337.67;88333;280;136243;-71
2023/10/11 09:27:23;;;;;;;4.10;3.30;;;;;;;11.19;54.12;101335.25;88353;281;25233;-71
2023/10/11 09:29:25;;;;;;;2.80;2.50;;;;;;;11.23;53.97;101328.27;88377;281;137323;-70
2023/10/11 09:31:27;;;;;;;5.70;2.80;;;;;;;11.18;54.10;101312.20;88431;277;22540;-69
2023/10/11 09:33:40;;;;;;;3.90;3.40;;;;;;;11.31;53.97;101319.34;88290;273;138532;-73
2023/10/11 09:35:48;;;;;;;6.00;2.90;;;;;;;11.41;53.59;101322.00;88508;278;22603;-71
2023/10/11 09:37:52;;;;;;;2.50;2.30;;;;;;;11.47;53.10;101317.79;88322;274;136200;-72
2023/10/11 09:39:54;;;;;;;2.80;1.60;;;;;;;11.56;52.94;101312.85;88631;274;22567;-71
2023/10/11 09:42:02;;;;;;;4.30;2.50;;;;;;;11.65;52.89;101304.68;88380;274;135997;-70
2023/10/11 09:44:10;;;;;;;4.30;2.10;;;;;;;11.79;52.22;101293.79;88426;274;136652;-67
2023/10/11 09:46:13;;;;;;;2.50;1.10;;;;;;;11.87;51.18;101295.14;88612;273;25229;-70
2023/10/11 09:48:17;;;;;;;6.30;5.60;;;;;;;11.94;50.80;101289.79;88582;277;136325;-69
2023/10/11 09:50:22;;;;;;;1.30;1.00;;;;;;;12.02;50.33;101288.39;88522;275;22540;-70
2023/10/11 09:52:28;;;;;;;;;;;;;;;12.07;49.85;101286.11;88409;273;136260;-71
2023/10/11 09:54:30;;;;;;;1.90;1.30;;;;;;;12.11;49.61;101282.66;88495;273;26263;-72
2023/10/11 09:56:50;;;;;;;2.90;1.20;;;;;;;12.14;49.52;101284.83;88270;281;136350;-74
2023/10/11 09:59:22;;;;;;;2.80;1.00;;;;;;;12.17;49.10;101278.58;88232;275;22532;-74
2023/10/11 10:01:38;;;;;;;2.50;1.10;;;;;;;12.19;49.02;101271.75;88264;274;136305;-70
2023/10/11 10:03:52;;;;;;;2.70;1.30;;;;;;;12.19;48.95;101275.20;88420;282;22537;-71
2023/10/11 10:06:21;;;;;;;2.80;1.20;;;;;;;12.24;48.88;101260.56;88369;282;136000;-72
2023/10/11 10:08:28;;;;;;;2.20;1.50;;;;;;;12.30;48.48;101266.44;88249;273;137842;-72
2023/10/11 10:12:45;;;;;;;1.50;1.30;;;;;;;12.29;48.55;101262.06;86710;303;604487;-73
2023/10/11 10:15:08;;;;;;;3.70;1.80;;;;;;;12.37;48.43;101260.70;87684;298;24073;-71
2023/10/11 10:17:15;;;;;;;3.20;1.50;;;;;;;12.44;47.52;101253.61;87714;293;135540;-70
2023/10/11 10:19:23;;;;;;;3.50;1.70;;;;;;;12.44;47.50;101252.30;87743;293;22546;-72
2023/10/11 10:21:25;;;;;;;5.80;2.20;;;;;;;12.43;47.40;101247.58;87783;292;135439;-70